EWG21L LIPZ-EDDF
Flight info
| Callsign | EWG21L |
|---|---|
| Flight time | 0h 57m |
| Altitude | 30000 |
| Route | ROKIB DCT GIKEB DCT BRENO M726 ERNAS T161 DEBHI DEBHI1B |
| Aircraft | A20N/M-VGDW/C |
Departure
| Time | 2026-05-06 08:29 |
|---|---|
| Airport | Venice Marco Polo Airport (LIPZ) |
Arrival
| Time | 2026-05-06 09:26 |
|---|---|
| Airport | Frankfurt Main Airport (EDDF) |
| Time | Latitude | Longitude | Altitude | Speed | Heading |
|---|---|---|---|---|---|
| 2026-05-06 08:16 | 45.50490 | 12.34208 | 19 ft | 0 kts | 268° |
| 2026-05-06 08:23 | 45.50490 | 12.34215 | 19 ft | 2 kts | 267° |
| 2026-05-06 08:23 | 45.50491 | 12.34239 | 22 ft | 2 kts | 268° |
| 2026-05-06 08:23 | 45.50492 | 12.34261 | 21 ft | 2 kts | 267° |
| 2026-05-06 08:24 | 45.50493 | 12.34285 | 21 ft | 2 kts | 266° |
| 2026-05-06 08:24 | 45.50494 | 12.34308 | 22 ft | 2 kts | 262° |
| 2026-05-06 08:24 | 45.50498 | 12.34331 | 19 ft | 2 kts | 236° |
| 2026-05-06 08:24 | 45.50508 | 12.34341 | 22 ft | 1 kts | 187° |
| 2026-05-06 08:25 | 45.50509 | 12.34341 | 22 ft | 0 kts | 186° |
| 2026-05-06 08:26 | 45.50500 | 12.34340 | 21 ft | 6 kts | 181° |
| 2026-05-06 08:26 | 45.50442 | 12.34346 | 19 ft | 9 kts | 176° |
| 2026-05-06 08:26 | 45.50384 | 12.34352 | 19 ft | 9 kts | 175° |
| 2026-05-06 08:26 | 45.50312 | 12.34354 | 19 ft | 12 kts | 190° |
| 2026-05-06 08:27 | 45.50235 | 12.34278 | 19 ft | 15 kts | 221° |
| 2026-05-06 08:27 | 45.50147 | 12.34164 | 19 ft | 19 kts | 222° |
| 2026-05-06 08:27 | 45.50036 | 12.34018 | 18 ft | 24 kts | 221° |
| 2026-05-06 08:27 | 45.49887 | 12.33856 | 18 ft | 27 kts | 201° |
| 2026-05-06 08:28 | 45.49770 | 12.33813 | 19 ft | 16 kts | 186° |
| 2026-05-06 08:28 | 45.49749 | 12.33850 | 18 ft | 4 kts | 85° |
| 2026-05-06 08:28 | 45.49790 | 12.33907 | 18 ft | 28 kts | 41° |
| 2026-05-06 08:28 | 45.50306 | 12.34578 | 20 ft | 123 kts | 43° |
| 2026-05-06 08:29 | 45.50815 | 12.35239 | 23 ft | 168 kts | 43° |
| 2026-05-06 08:29 | 45.51716 | 12.36433 | 549 ft | 177 kts | 49° |
| 2026-05-06 08:29 | 45.52494 | 12.37696 | 1485 ft | 166 kts | 52° |
| 2026-05-06 08:29 | 45.53274 | 12.39027 | 1950 ft | 191 kts | 63° |
| 2026-05-06 08:30 | 45.53642 | 12.40915 | 2179 ft | 213 kts | 94° |
| 2026-05-06 08:30 | 45.53493 | 12.43098 | 2682 ft | 228 kts | 102° |
| 2026-05-06 08:30 | 45.53236 | 12.45367 | 3347 ft | 234 kts | 102° |
| 2026-05-06 08:30 | 45.52972 | 12.47670 | 4109 ft | 235 kts | 102° |
| 2026-05-06 08:31 | 45.52619 | 12.49949 | 4892 ft | 236 kts | 112° |
| 2026-05-06 08:31 | 45.51811 | 12.51995 | 5570 ft | 237 kts | 134° |
| 2026-05-06 08:31 | 45.50493 | 12.53349 | 6305 ft | 237 kts | 161° |
| 2026-05-06 08:31 | 45.48856 | 12.53581 | 7166 ft | 240 kts | 191° |
| 2026-05-06 08:32 | 45.47340 | 12.52647 | 8110 ft | 242 kts | 219° |
| 2026-05-06 08:32 | 45.46359 | 12.50737 | 8960 ft | 242 kts | 249° |
| 2026-05-06 08:32 | 45.46044 | 12.48359 | 9663 ft | 248 kts | 263° |
| 2026-05-06 08:32 | 45.46135 | 12.45879 | 10317 ft | 254 kts | 279° |
| 2026-05-06 08:33 | 45.46842 | 12.43531 | 10956 ft | 264 kts | 300° |
| 2026-05-06 08:33 | 45.47976 | 12.41439 | 11607 ft | 270 kts | 306° |
| 2026-05-06 08:33 | 45.49228 | 12.39415 | 12270 ft | 274 kts | 307° |
| 2026-05-06 08:33 | 45.50517 | 12.37391 | 12930 ft | 278 kts | 307° |
| 2026-05-06 08:34 | 45.51829 | 12.35340 | 13609 ft | 281 kts | 307° |
| 2026-05-06 08:34 | 45.54492 | 12.31173 | 14837 ft | 287 kts | 306° |
| 2026-05-06 08:34 | 45.55848 | 12.29048 | 15443 ft | 291 kts | 306° |
| 2026-05-06 08:35 | 45.57200 | 12.26925 | 16063 ft | 294 kts | 306° |
| 2026-05-06 08:35 | 45.58586 | 12.24716 | 16838 ft | 297 kts | 305° |
| 2026-05-06 08:35 | 45.59980 | 12.22533 | 17512 ft | 304 kts | 307° |
| 2026-05-06 08:35 | 45.61421 | 12.20302 | 18283 ft | 308 kts | 305° |
| 2026-05-06 08:36 | 45.62856 | 12.17997 | 18930 ft | 312 kts | 304° |
| 2026-05-06 08:36 | 45.64313 | 12.15693 | 19649 ft | 313 kts | 304° |
| 2026-05-06 08:36 | 45.65794 | 12.13392 | 20416 ft | 314 kts | 304° |
| 2026-05-06 08:36 | 45.67257 | 12.11086 | 21030 ft | 318 kts | 304° |
| 2026-05-06 08:37 | 45.68754 | 12.08719 | 21594 ft | 322 kts | 304° |
| 2026-05-06 08:37 | 45.70260 | 12.06337 | 22175 ft | 324 kts | 304° |
| 2026-05-06 08:37 | 45.71779 | 12.03933 | 22723 ft | 328 kts | 304° |
| 2026-05-06 08:37 | 45.73318 | 12.01494 | 23231 ft | 331 kts | 304° |
| 2026-05-06 08:38 | 45.74868 | 11.99036 | 23671 ft | 334 kts | 304° |
| 2026-05-06 08:38 | 45.76432 | 11.96553 | 24046 ft | 337 kts | 304° |
| 2026-05-06 08:38 | 45.78009 | 11.94050 | 24458 ft | 338 kts | 304° |
| 2026-05-06 08:38 | 45.79591 | 11.91535 | 24862 ft | 340 kts | 303° |
| 2026-05-06 08:39 | 45.81181 | 11.89005 | 25273 ft | 342 kts | 303° |
| 2026-05-06 08:39 | 45.82756 | 11.86495 | 25681 ft | 343 kts | 303° |
| 2026-05-06 08:39 | 45.84355 | 11.83948 | 26084 ft | 344 kts | 303° |
| 2026-05-06 08:39 | 45.85963 | 11.81381 | 26471 ft | 346 kts | 303° |
| 2026-05-06 08:40 | 45.87576 | 11.78803 | 26835 ft | 348 kts | 303° |
| 2026-05-06 08:40 | 45.89205 | 11.76212 | 27197 ft | 351 kts | 304° |
| 2026-05-06 08:40 | 45.90926 | 11.73694 | 27538 ft | 356 kts | 306° |
| 2026-05-06 08:40 | 45.92777 | 11.71259 | 27866 ft | 365 kts | 314° |
| 2026-05-06 08:41 | 45.94951 | 11.69328 | 28162 ft | 380 kts | 328° |
| 2026-05-06 08:41 | 45.97479 | 11.68028 | 28447 ft | 389 kts | 336° |
| 2026-05-06 08:41 | 46.00136 | 11.67052 | 28760 ft | 396 kts | 340° |
| 2026-05-06 08:41 | 46.02844 | 11.66255 | 29120 ft | 399 kts | 341° |
| 2026-05-06 08:42 | 46.05582 | 11.65537 | 29422 ft | 401 kts | 342° |
| 2026-05-06 08:42 | 46.08335 | 11.64824 | 29714 ft | 404 kts | 342° |
| 2026-05-06 08:42 | 46.11112 | 11.64085 | 29919 ft | 408 kts | 341° |
| 2026-05-06 08:43 | 46.16827 | 11.62479 | 29929 ft | 429 kts | 341° |
| 2026-05-06 08:43 | 46.22733 | 11.60736 | 29945 ft | 443 kts | 341° |
| 2026-05-06 08:44 | 46.28879 | 11.58865 | 29935 ft | 460 kts | 341° |
| 2026-05-06 08:44 | 46.35271 | 11.56911 | 29930 ft | 478 kts | 341° |
| 2026-05-06 08:45 | 46.41906 | 11.54901 | 29917 ft | 492 kts | 342° |
| 2026-05-06 08:45 | 46.48623 | 11.52889 | 29919 ft | 492 kts | 342° |
| 2026-05-06 08:46 | 46.55277 | 11.50871 | 29912 ft | 491 kts | 342° |
| 2026-05-06 08:46 | 46.61970 | 11.48806 | 29914 ft | 491 kts | 342° |
| 2026-05-06 08:47 | 46.68663 | 11.46739 | 29911 ft | 492 kts | 342° |
| 2026-05-06 08:47 | 46.75357 | 11.44680 | 29933 ft | 492 kts | 342° |
| 2026-05-06 08:48 | 46.82060 | 11.42604 | 29915 ft | 493 kts | 342° |
| 2026-05-06 08:48 | 46.88772 | 11.40519 | 29894 ft | 492 kts | 342° |
| 2026-05-06 08:49 | 46.95437 | 11.38505 | 29877 ft | 494 kts | 345° |
| 2026-05-06 08:49 | 47.02392 | 11.38145 | 29864 ft | 504 kts | 357° |
| 2026-05-06 08:50 | 47.09395 | 11.38707 | 29856 ft | 503 kts | 360° |
| 2026-05-06 08:50 | 47.16369 | 11.39450 | 29806 ft | 502 kts | 0° |
| 2026-05-06 08:51 | 47.23344 | 11.40178 | 29807 ft | 501 kts | 358° |
| 2026-05-06 08:51 | 47.30305 | 11.40376 | 29804 ft | 499 kts | 355° |
| 2026-05-06 08:52 | 47.37209 | 11.40310 | 29804 ft | 499 kts | 355° |
| 2026-05-06 08:52 | 47.44147 | 11.40209 | 29810 ft | 498 kts | 354° |
| 2026-05-06 08:53 | 47.51098 | 11.40103 | 29804 ft | 500 kts | 355° |
| 2026-05-06 08:53 | 47.58065 | 11.40020 | 29802 ft | 500 kts | 355° |
| 2026-05-06 08:54 | 47.65007 | 11.39764 | 29808 ft | 497 kts | 351° |
| 2026-05-06 08:54 | 47.71865 | 11.38863 | 29806 ft | 498 kts | 348° |
| 2026-05-06 08:55 | 47.78785 | 11.37801 | 29812 ft | 500 kts | 349° |
| 2026-05-06 08:55 | 47.85714 | 11.36802 | 29822 ft | 500 kts | 350° |
| 2026-05-06 08:56 | 47.92680 | 11.36104 | 29824 ft | 502 kts | 351° |
| 2026-05-06 08:56 | 47.99667 | 11.35557 | 29828 ft | 503 kts | 352° |
| 2026-05-06 08:57 | 48.06613 | 11.34994 | 29830 ft | 502 kts | 350° |
| 2026-05-06 08:57 | 48.13535 | 11.33887 | 29828 ft | 498 kts | 346° |
| 2026-05-06 08:58 | 48.20402 | 11.32460 | 29829 ft | 497 kts | 346° |
| 2026-05-06 08:58 | 48.27261 | 11.31054 | 29826 ft | 498 kts | 347° |
| 2026-05-06 08:59 | 48.34151 | 11.29894 | 29822 ft | 499 kts | 348° |
| 2026-05-06 08:59 | 48.41025 | 11.28841 | 29821 ft | 499 kts | 348° |
| 2026-05-06 09:00 | 48.47936 | 11.27775 | 29834 ft | 499 kts | 348° |
| 2026-05-06 09:00 | 48.54841 | 11.26684 | 29838 ft | 498 kts | 348° |
| 2026-05-06 09:01 | 48.61729 | 11.25589 | 29827 ft | 498 kts | 348° |
| 2026-05-06 09:01 | 48.68622 | 11.24487 | 29826 ft | 498 kts | 348° |
| 2026-05-06 09:02 | 48.75512 | 11.23380 | 29833 ft | 498 kts | 348° |
| 2026-05-06 09:02 | 48.82189 | 11.21474 | 29823 ft | 484 kts | 334° |
| 2026-05-06 09:02 | 48.85250 | 11.19481 | 29829 ft | 473 kts | 324° |
| 2026-05-06 09:03 | 48.87992 | 11.16786 | 29832 ft | 463 kts | 314° |
| 2026-05-06 09:03 | 48.92869 | 11.10471 | 29821 ft | 459 kts | 310° |
| 2026-05-06 09:04 | 48.97553 | 11.03871 | 29859 ft | 458 kts | 309° |
| 2026-05-06 09:04 | 49.02195 | 10.97253 | 29835 ft | 460 kts | 310° |
| 2026-05-06 09:05 | 49.06890 | 10.90607 | 29838 ft | 460 kts | 310° |
| 2026-05-06 09:05 | 49.11592 | 10.83968 | 29835 ft | 460 kts | 310° |
| 2026-05-06 09:06 | 49.16265 | 10.77357 | 29849 ft | 460 kts | 310° |
| 2026-05-06 09:06 | 49.20903 | 10.70613 | 29845 ft | 458 kts | 307° |
| 2026-05-06 09:07 | 49.25358 | 10.63605 | 29834 ft | 461 kts | 307° |
| 2026-05-06 09:07 | 49.29804 | 10.56573 | 29831 ft | 462 kts | 307° |
| 2026-05-06 09:08 | 49.34272 | 10.49504 | 29584 ft | 460 kts | 307° |
| 2026-05-06 09:08 | 49.36358 | 10.45864 | 29205 ft | 446 kts | 301° |
| 2026-05-06 09:08 | 49.38179 | 10.42085 | 28959 ft | 433 kts | 298° |
| 2026-05-06 09:08 | 49.39893 | 10.38360 | 28762 ft | 422 kts | 298° |
| 2026-05-06 09:09 | 49.41553 | 10.34718 | 28570 ft | 411 kts | 298° |
| 2026-05-06 09:09 | 49.43170 | 10.31162 | 28385 ft | 400 kts | 298° |
| 2026-05-06 09:09 | 49.44746 | 10.27694 | 28193 ft | 391 kts | 298° |
| 2026-05-06 09:09 | 49.46285 | 10.24307 | 28015 ft | 381 kts | 298° |
| 2026-05-06 09:10 | 49.47777 | 10.21016 | 27838 ft | 371 kts | 298° |
| 2026-05-06 09:10 | 49.49218 | 10.17837 | 27681 ft | 361 kts | 298° |
| 2026-05-06 09:10 | 49.50643 | 10.14689 | 27471 ft | 353 kts | 297° |
| 2026-05-06 09:10 | 49.52036 | 10.11604 | 27150 ft | 349 kts | 298° |
| 2026-05-06 09:11 | 49.53414 | 10.08546 | 26802 ft | 345 kts | 298° |
| 2026-05-06 09:11 | 49.54773 | 10.05533 | 26555 ft | 340 kts | 298° |
| 2026-05-06 09:11 | 49.56099 | 10.02591 | 26228 ft | 336 kts | 298° |
| 2026-05-06 09:11 | 49.57430 | 9.99632 | 25852 ft | 335 kts | 298° |
| 2026-05-06 09:12 | 49.58753 | 9.96687 | 25493 ft | 332 kts | 298° |
| 2026-05-06 09:12 | 49.60064 | 9.93765 | 25148 ft | 330 kts | 299° |
| 2026-05-06 09:12 | 49.61366 | 9.90865 | 24824 ft | 328 kts | 299° |
| 2026-05-06 09:12 | 49.62658 | 9.87981 | 24480 ft | 326 kts | 299° |
| 2026-05-06 09:13 | 49.63944 | 9.85110 | 24155 ft | 324 kts | 299° |
| 2026-05-06 09:13 | 49.65218 | 9.82261 | 23830 ft | 321 kts | 300° |
| 2026-05-06 09:13 | 49.66482 | 9.79433 | 23508 ft | 319 kts | 300° |
| 2026-05-06 09:13 | 49.67738 | 9.76619 | 23157 ft | 317 kts | 300° |
| 2026-05-06 09:14 | 49.68984 | 9.73824 | 22751 ft | 315 kts | 300° |
| 2026-05-06 09:14 | 49.70223 | 9.71043 | 22358 ft | 314 kts | 300° |
| 2026-05-06 09:14 | 49.71456 | 9.68272 | 21976 ft | 312 kts | 300° |
| 2026-05-06 09:14 | 49.72681 | 9.65516 | 21599 ft | 310 kts | 300° |
| 2026-05-06 09:15 | 49.73898 | 9.62775 | 21227 ft | 308 kts | 300° |
| 2026-05-06 09:15 | 49.75093 | 9.60081 | 20865 ft | 306 kts | 300° |
| 2026-05-06 09:15 | 49.76294 | 9.57371 | 20504 ft | 305 kts | 300° |
| 2026-05-06 09:15 | 49.77493 | 9.54661 | 20142 ft | 303 kts | 300° |
| 2026-05-06 09:16 | 49.78681 | 9.51974 | 19795 ft | 302 kts | 300° |
| 2026-05-06 09:16 | 49.79867 | 9.49288 | 19410 ft | 302 kts | 300° |
| 2026-05-06 09:16 | 49.80652 | 9.47510 | 19173 ft | 301 kts | 300° |
| 2026-05-06 09:16 | 49.81833 | 9.44830 | 18799 ft | 301 kts | 300° |
| 2026-05-06 09:17 | 49.83011 | 9.42157 | 18459 ft | 300 kts | 300° |
| 2026-05-06 09:17 | 49.84182 | 9.39495 | 18138 ft | 299 kts | 300° |
| 2026-05-06 09:17 | 49.85632 | 9.35891 | 17651 ft | 295 kts | 294° |
| 2026-05-06 09:17 | 49.86238 | 9.33978 | 17398 ft | 292 kts | 289° |
| 2026-05-06 09:18 | 49.86963 | 9.31057 | 17063 ft | 289 kts | 288° |
| 2026-05-06 09:18 | 49.87986 | 9.28312 | 16386 ft | 303 kts | 305° |
| 2026-05-06 09:18 | 49.89456 | 9.25864 | 15640 ft | 317 kts | 312° |
| 2026-05-06 09:18 | 49.91081 | 9.23510 | 14888 ft | 329 kts | 314° |
| 2026-05-06 09:19 | 49.92804 | 9.21095 | 14119 ft | 340 kts | 315° |
| 2026-05-06 09:19 | 49.94594 | 9.18602 | 13274 ft | 351 kts | 315° |
| 2026-05-06 09:19 | 49.96439 | 9.16034 | 12324 ft | 361 kts | 315° |
| 2026-05-06 09:19 | 49.98337 | 9.13390 | 11324 ft | 371 kts | 315° |
| 2026-05-06 09:20 | 50.00284 | 9.10673 | 10289 ft | 381 kts | 315° |
| 2026-05-06 09:20 | 50.02265 | 9.07908 | 9148 ft | 383 kts | 315° |
| 2026-05-06 09:20 | 50.04241 | 9.05146 | 8053 ft | 379 kts | 315° |
| 2026-05-06 09:20 | 50.06187 | 9.02425 | 7043 ft | 373 kts | 315° |
| 2026-05-06 09:21 | 50.08101 | 8.99743 | 6087 ft | 366 kts | 316° |
| 2026-05-06 09:21 | 50.09947 | 8.97067 | 5076 ft | 358 kts | 310° |
| 2026-05-06 09:21 | 50.11159 | 8.93850 | 4296 ft | 343 kts | 284° |
| 2026-05-06 09:21 | 50.11359 | 8.90294 | 3885 ft | 318 kts | 264° |
| 2026-05-06 09:22 | 50.10907 | 8.87076 | 3786 ft | 290 kts | 250° |
| 2026-05-06 09:22 | 50.10185 | 8.84299 | 3761 ft | 264 kts | 246° |
| 2026-05-06 09:22 | 50.09511 | 8.81745 | 3553 ft | 247 kts | 248° |
| 2026-05-06 09:22 | 50.08943 | 8.79321 | 3248 ft | 229 kts | 249° |
| 2026-05-06 09:23 | 50.08423 | 8.77102 | 2887 ft | 210 kts | 248° |
| 2026-05-06 09:23 | 50.07929 | 8.75058 | 2590 ft | 195 kts | 248° |
| 2026-05-06 09:23 | 50.07561 | 8.73071 | 2335 ft | 188 kts | 257° |
| 2026-05-06 09:23 | 50.07353 | 8.71110 | 1981 ft | 178 kts | 259° |
| 2026-05-06 09:24 | 50.07088 | 8.69319 | 1698 ft | 161 kts | 250° |
| 2026-05-06 09:24 | 50.06658 | 8.67697 | 1520 ft | 164 kts | 246° |
| 2026-05-06 09:24 | 50.06281 | 8.66099 | 1332 ft | 154 kts | 249° |
| 2026-05-06 09:24 | 50.05932 | 8.64541 | 1094 ft | 150 kts | 248° |
| 2026-05-06 09:25 | 50.05550 | 8.63004 | 940 ft | 154 kts | 245° |
| 2026-05-06 09:25 | 50.05175 | 8.61436 | 737 ft | 157 kts | 246° |
| 2026-05-06 09:25 | 50.04791 | 8.59847 | 549 ft | 159 kts | 246° |
| 2026-05-06 09:25 | 50.04422 | 8.58292 | 381 ft | 146 kts | 245° |
| 2026-05-06 09:26 | 50.04120 | 8.57061 | 369 ft | 80 kts | 250° |
| 2026-05-06 09:26 | 50.03992 | 8.56470 | 360 ft | 53 kts | 266° |
| 2026-05-06 09:26 | 50.04004 | 8.56266 | 357 ft | 1 kts | 279° |
| 2026-05-06 09:26 | 50.04005 | 8.56257 | 356 ft | 1 kts | 279° |
| 2026-05-06 09:27 | 50.04006 | 8.56247 | 357 ft | 1 kts | 279° |
| 2026-05-06 09:27 | 50.04008 | 8.56230 | 360 ft | 2 kts | 279° |
| 2026-05-06 09:27 | 50.04011 | 8.56201 | 361 ft | 4 kts | 279° |
| 2026-05-06 09:27 | 50.04020 | 8.56160 | 357 ft | 4 kts | 303° |
| 2026-05-06 09:28 | 50.04035 | 8.56142 | 361 ft | 2 kts | 333° |
| 2026-05-06 09:28 | 50.04064 | 8.56133 | 356 ft | 4 kts | 1° |
| 2026-05-06 09:28 | 50.04095 | 8.56158 | 357 ft | 8 kts | 47° |
| 2026-05-06 09:28 | 50.04118 | 8.56245 | 360 ft | 9 kts | 71° |
| 2026-05-06 09:29 | 50.04137 | 8.56326 | 356 ft | 8 kts | 69° |
| 2026-05-06 09:29 | 50.04160 | 8.56421 | 361 ft | 11 kts | 69° |
| 2026-05-06 09:29 | 50.04193 | 8.56551 | 364 ft | 15 kts | 69° |
| 2026-05-06 09:29 | 50.04230 | 8.56709 | 364 ft | 15 kts | 71° |
| 2026-05-06 09:30 | 50.04261 | 8.56845 | 366 ft | 12 kts | 71° |
| 2026-05-06 09:30 | 50.04295 | 8.56984 | 364 ft | 18 kts | 69° |
| 2026-05-06 09:30 | 50.04342 | 8.57176 | 368 ft | 20 kts | 69° |
| 2026-05-06 09:30 | 50.04398 | 8.57411 | 364 ft | 30 kts | 69° |
| 2026-05-06 09:31 | 50.04477 | 8.57743 | 369 ft | 32 kts | 70° |
| 2026-05-06 09:31 | 50.04555 | 8.58023 | 368 ft | 19 kts | 31° |
| 2026-05-06 09:31 | 50.04677 | 8.57977 | 363 ft | 20 kts | 339° |
| 2026-05-06 09:31 | 50.04805 | 8.57901 | 364 ft | 19 kts | 334° |
| 2026-05-06 09:32 | 50.04875 | 8.57737 | 365 ft | 18 kts | 293° |
| 2026-05-06 09:32 | 50.04928 | 8.57553 | 361 ft | 19 kts | 294° |
| 2026-05-06 09:32 | 50.04984 | 8.57411 | 361 ft | 10 kts | 336° |
| 2026-05-06 09:32 | 50.05004 | 8.57406 | 359 ft | 0 kts | 38° |
| 2026-05-06 09:33 | 50.05004 | 8.57409 | 359 ft | 0 kts | 58° |
| 2026-05-06 09:33 | 50.05004 | 8.57416 | 359 ft | 1 kts | 82° |
| 2026-05-06 09:33 | 50.05005 | 8.57426 | 365 ft | 0 kts | 80° |